RJAA Airport Information

Runway Information
Runway 16L Length 7152 ft width 196 ft
Elevation 135 ft Threshold 190 ft Heading 150
Runway 34R Length 7152 ft Width 196 ft
Elevation 141 ft Threshold 190 ft Heading 330
Runway 16R Length 13123 ft width 196 ft
Elevation 130 ft Threshold 0 ft Heading 150
Runway 34L Length 13123 ft Width 196 ft
Elevation 139 ft Threshold 2460 ft Heading 330
Airport Frequencies
Type APP Name TOKYO APP Frequency 124.4 MHZ
Type ATIS Name ATIS Frequency 128.25 MHZ
Type CLD Name CLNC DEL Frequency 121.9 MHZ
Type CLR Name CLNC DEL Frequency 121.65 MHZ
Type DEP Name TOKYO DEP Frequency 124.2 MHZ
Type GND Name Frequency 121.85 MHZ
Type GND Name GND Frequency 121.95 MHZ
Type RDR Name TOKYO RDR Frequency 120.2 MHZ
Type RMP Name RAMP Frequency 121.6 MHZ
Type RMP Name RAMP Frequency 121.75 MHZ
Type TCA Name TOKYO TCA Frequency 119.45 MHZ
Type TWR Name TWR Frequency 118.2 MHZ
Type TWR Name Frequency 118.35 MHZ
Airport Navaids
Type VOR-DME Name Narita Frequency 117900 KHZ
Type VOR-DME Name Sakura Frequency 112700 KHZ
Airport Weather Information & NOTAM
ADDS - METARS form results

(1819 UTC 27 May 2022)
Data provider http://aviationweather.gov/metar/data/
 
METAR text: RJAA 271808Z AUTO 32005KT 3600 R16R/2000N R16L/0550VP2000D BR NSC 17/17 Q0998 RMK A2948
Conditions at: RJAA (NARITA INTL , JP) observed 1808 UTC 27 May 2022
Temperature: 17.0°C (63°F)
Dewpoint: 17.0°C (63°F) [RH = 100%]
Pressure (altimeter): 29.47 inches Hg (998.0 mb)
Winds: from the NW (320 degrees) at 6 MPH (5 knots; 2.6 m/s)
Visibility: 2.24 miles (3.60 km)
Ceiling: at least 12,000 feet AGL
Clouds: sky clear below 12,000 feet AGL
Weather: BR  (mist)

METAR text: RJAA 271806Z AUTO 32005KT 3500 R16R/2000N R16L/0550VP2000D BR NSC 17/17 Q0998 RMK A2948
Conditions at: RJAA (NARITA INTL , JP) observed 1806 UTC 27 May 2022
Temperature: 17.0°C (63°F)
Dewpoint: 17.0°C (63°F) [RH = 100%]
Pressure (altimeter): 29.47 inches Hg (998.0 mb)
Winds: from the NW (320 degrees) at 6 MPH (5 knots; 2.6 m/s)
Visibility: 2.17 miles (3.49 km)
Ceiling: at least 12,000 feet AGL
Clouds: sky clear below 12,000 feet AGL
Weather: BR  (mist)

METAR text: RJAA 271805Z AUTO 32005KT 4000 R16R/1500VP2000N R16L/0550VP2000D BR NSC 17/17 Q0998 RMK A2947
Conditions at: RJAA (NARITA INTL , JP) observed 1805 UTC 27 May 2022
Temperature: 17.0°C (63°F)
Dewpoint: 17.0°C (63°F) [RH = 100%]
Pressure (altimeter): 29.47 inches Hg (998.0 mb)
Winds: from the NW (320 degrees) at 6 MPH (5 knots; 2.6 m/s)
Visibility: 2.49 miles (4.01 km)
Ceiling: at least 12,000 feet AGL
Clouds: sky clear below 12,000 feet AGL
Weather: BR  (mist)

METAR text: RJAA 271800Z AUTO 32004KT 4600 R16R/1000VP2000U R16L/0750VP2000U BR NSC 17/17 Q0998 BECMG 9999 NSW RMK A2947
Conditions at: RJAA (NARITA INTL , JP) observed 1800 UTC 27 May 2022
Temperature: 17.0°C (63°F)
Dewpoint: 17.0°C (63°F) [RH = 100%]
Pressure (altimeter): 29.47 inches Hg (998.0 mb)
Winds: from the NW (320 degrees) at 5 MPH (4 knots; 2.1 m/s)
Visibility: 2.86 miles (4.60 km)
Ceiling: at least 12,000 feet AGL
Clouds: sky clear below 12,000 feet AGL
Weather: BR  (mist)

METAR text: RJAA 271749Z AUTO 33005KT 6000 R16R/0800VP2000D R16L/0550V1800D FEW003 //////TCU 17/17 Q0998 RMK A2947 TCU 30KM SE MOV UNKNOWN
Conditions at: RJAA (NARITA INTL , JP) observed 1749 UTC 27 May 2022
Temperature: 17.0°C (63°F)
Dewpoint: 17.0°C (63°F) [RH = 100%]
Pressure (altimeter): 29.47 inches Hg (998.0 mb)
Winds: from the NNW (330 degrees) at 6 MPH (5 knots; 2.6 m/s)
Visibility: 4 miles ( 6 km)
Ceiling: at least 12,000 feet AGL
Clouds: few clouds at 300 feet AGL
Weather: no significant weather observed at this time

METAR text: RJAA 271747Z AUTO 33005KT 6000 R16R/0600VP2000D R16L/0550V1800D FEW003 SCT100 //////TCU 17/17 Q0998 RMK A2947 TCU 30KM SE MOV UNKNOWN
Conditions at: RJAA (NARITA INTL , JP) observed 1747 UTC 27 May 2022
Temperature: 17.0°C (63°F)
Dewpoint: 17.0°C (63°F) [RH = 100%]
Pressure (altimeter): 29.47 inches Hg (998.0 mb)
Winds: from the NNW (330 degrees) at 6 MPH (5 knots; 2.6 m/s)
Visibility: 4 miles ( 6 km)
Ceiling: at least 12,000 feet AGL
Clouds: few clouds at 300 feet AGL
scattered clouds at 10000 feet AGL
Weather: no significant weather observed at this time

METAR text: RJAA 271746Z AUTO 33005KT 7000 R16R/0550VP2000U R16L/0550V1800D FEW003 SCT100 //////TCU 17/17 Q0998 RMK A2947 TCU 30KM SE MOV UNKNOWN
Conditions at: RJAA (NARITA INTL , JP) observed 1746 UTC 27 May 2022
Temperature: 17.0°C (63°F)
Dewpoint: 17.0°C (63°F) [RH = 100%]
Pressure (altimeter): 29.47 inches Hg (998.0 mb)
Winds: from the NNW (330 degrees) at 6 MPH (5 knots; 2.6 m/s)
Visibility: 4 miles ( 7 km)
Ceiling: at least 12,000 feet AGL
Clouds: few clouds at 300 feet AGL
scattered clouds at 10000 feet AGL
Weather: no significant weather observed at this time

METAR text: RJAA 271737Z AUTO 33004KT 7000 R16R/0600VP2000D R16L/0900VP2000D FEW003 SCT080 BKN100 17/17 Q0998 RMK A2947
Conditions at: RJAA (NARITA INTL , JP) observed 1737 UTC 27 May 2022
Temperature: 17.0°C (63°F)
Dewpoint: 17.0°C (63°F) [RH = 100%]
Pressure (altimeter): 29.47 inches Hg (998.0 mb)
Winds: from the NNW (330 degrees) at 5 MPH (4 knots; 2.1 m/s)
Visibility: 4 miles ( 7 km)
Ceiling: 10000 feet AGL
Clouds: few clouds at 300 feet AGL
scattered clouds at 8000 feet AGL
broken clouds at 10000 feet AGL
Weather: no significant weather observed at this time

METAR text: RJAA 271735Z AUTO 33004KT 6000 R16R/1100VP2000D R16L/0900VP2000D FEW003 SCT080 BKN100 17/17 Q0998 RMK A2947
Conditions at: RJAA (NARITA INTL , JP) observed 1735 UTC 27 May 2022
Temperature: 17.0°C (63°F)
Dewpoint: 17.0°C (63°F) [RH = 100%]
Pressure (altimeter): 29.47 inches Hg (998.0 mb)
Winds: from the NNW (330 degrees) at 5 MPH (4 knots; 2.1 m/s)
Visibility: 4 miles ( 6 km)
Ceiling: 10000 feet AGL
Clouds: few clouds at 300 feet AGL
scattered clouds at 8000 feet AGL
broken clouds at 10000 feet AGL
Weather: no significant weather observed at this time

METAR text: RJAA 271732Z AUTO 33004KT 6000 R16R/P2000N R16L/0900VP2000D FEW003 SCT080 BKN090 17/17 Q0997 RMK A2947
Conditions at: RJAA (NARITA INTL , JP) observed 1732 UTC 27 May 2022
Temperature: 17.0°C (63°F)
Dewpoint: 17.0°C (63°F) [RH = 100%]
Pressure (altimeter): 29.44 inches Hg (997.0 mb)
Winds: from the NNW (330 degrees) at 5 MPH (4 knots; 2.1 m/s)
Visibility: 4 miles ( 6 km)
Ceiling: 9000 feet AGL
Clouds: few clouds at 300 feet AGL
scattered clouds at 8000 feet AGL
broken clouds at 9000 feet AGL
Weather: no significant weather observed at this time

METAR text: RJAA 271730Z AUTO 32004KT 5000 R16R/P2000N R16L/1200VP2000D BR FEW003 BKN080 BKN100 17/17 Q0997 NOSIG RMK A2947
Conditions at: RJAA (NARITA INTL , JP) observed 1730 UTC 27 May 2022
Temperature: 17.0°C (63°F)
Dewpoint: 17.0°C (63°F) [RH = 100%]
Pressure (altimeter): 29.44 inches Hg (997.0 mb)
Winds: from the NW (320 degrees) at 5 MPH (4 knots; 2.1 m/s)
Visibility: 3 miles ( 5 km)
Ceiling: 8000 feet AGL
Clouds: few clouds at 300 feet AGL
broken clouds at 8000 feet AGL
broken clouds at 10000 feet AGL
Weather: BR  (mist)

METAR text: RJAA 271726Z AUTO 32004KT 6000 FEW002 SCT005 BKN080 17/17 Q0997 RMK A2947
Conditions at: RJAA (NARITA INTL , JP) observed 1726 UTC 27 May 2022
Temperature: 17.0°C (63°F)
Dewpoint: 17.0°C (63°F) [RH = 100%]
Pressure (altimeter): 29.44 inches Hg (997.0 mb)
Winds: from the NW (320 degrees) at 5 MPH (4 knots; 2.1 m/s)
Visibility: 4 miles ( 6 km)
Ceiling: 8000 feet AGL
Clouds: few clouds at 200 feet AGL
scattered clouds at 500 feet AGL
broken clouds at 8000 feet AGL
Weather: no significant weather observed at this time

METAR text: RJAA 271721Z AUTO 32004KT 6000 BKN002 BKN005 BKN080 18/17 Q0998 RMK A2947
Conditions at: RJAA (NARITA INTL , JP) observed 1721 UTC 27 May 2022
Temperature: 18.0°C (64°F)
Dewpoint: 17.0°C (63°F) [RH = 94%]
Pressure (altimeter): 29.47 inches Hg (998.0 mb)
Winds: from the NW (320 degrees) at 5 MPH (4 knots; 2.1 m/s)
Visibility: 4 miles ( 6 km)
Ceiling: 200 feet AGL
Clouds: broken clouds at 200 feet AGL
broken clouds at 500 feet AGL
broken clouds at 8000 feet AGL
Weather: no significant weather observed at this time

Forecast for: RJAA (NARITA INTL , JP)
Text: TAF RJAA 271705Z 2718/2900 30008KT 9999 FEW020
Forecast period: 1800 UTC 27 May 2022 to 1500 UTC 28 May 2022
Forecast type: FROM: standard forecast or significant change
Winds: from the WNW (300 degrees) at 9 MPH (8 knots; 4.1 m/s)
Visibility: 6 or more miles (10+ km)
Ceiling: at least 12,000 feet AGL
Clouds: few clouds at 2000 feet AGL
Weather: no significant weather forecast for this period
Text: TEMPO 2718/2721 4000 BR FEW003 BKN005
Forecast period: 1800 to 2100 UTC 27 May 2022
Forecast type: TEMPORARY: The following changes expected for less than half the time period
Visibility: 2.49 miles (4.01 km)
Ceiling: 500 feet AGL
Clouds: few clouds at 300 feet AGL
broken clouds at 500 feet AGL
Weather: BR  (mist)
Text: BECMG 2815/2818 20006KT
Forecast period: 1500 UTC 28 May 2022 to 0000 UTC 29 May 2022
Forecast type: BECOMING: Conditions expected to become as follows by 1800 UTC 28 May 2022
Winds: from the SSW (200 degrees) at 7 MPH (6 knots; 3.1 m/s)
Visibility: 6 or more miles (10+ km)
Ceiling: at least 12,000 feet AGL
Clouds: few clouds at 2000 feet AGL
Weather: no significant weather forecast for this period